createdAt,value
2023-02-04T00:00:23.139Z,99.90
2023-02-04T00:02:50.851Z,99.90
2023-02-04T00:06:09.542Z,99.90
2023-02-04T00:23:39.288Z,99.90
2023-02-04T00:26:06.500Z,99.90
2023-02-04T00:33:29.136Z,99.90
2023-02-04T00:40:51.848Z,99.90
2023-02-04T00:53:09.973Z,99.90
2023-02-04T00:55:37.273Z,99.90
2023-02-04T01:00:33.359Z,99.90
2023-02-04T01:03:03.219Z,99.90
2023-02-04T01:15:25.243Z,99.90
2023-02-04T01:17:54.358Z,99.90
2023-02-04T01:22:50.607Z,99.90
2023-02-04T01:25:20.854Z,99.90
2023-02-04T01:27:50.476Z,99.90
2023-02-04T01:30:17.796Z,99.90
2023-02-04T01:37:41.274Z,99.90
2023-02-04T01:40:09.548Z,99.90
2023-02-04T01:42:37.339Z,99.90
2023-02-04T01:45:06.409Z,99.90
2023-02-04T01:47:35.200Z,99.90
2023-02-04T01:52:38.403Z,99.90
2023-02-04T01:55:17.320Z,99.90
2023-02-04T01:57:45.939Z,99.90
2023-02-04T02:00:34.027Z,99.90
2023-02-04T02:05:37.447Z,99.90
2023-02-04T02:08:07.064Z,99.90
2023-02-04T02:10:39.041Z,99.90
2023-02-04T02:13:18.808Z,99.90
2023-02-04T02:23:45.145Z,99.90
2023-02-04T02:26:13.529Z,99.90
2023-02-04T02:36:06.902Z,99.90
2023-02-04T02:38:34.180Z,99.90
2023-02-04T02:41:05.548Z,99.90
2023-02-04T02:43:32.996Z,99.90
2023-02-04T02:46:03.360Z,99.90
2023-02-04T02:58:34.972Z,99.90
2023-02-04T03:01:05.014Z,99.90
2023-02-04T03:03:38.899Z,99.90
2023-02-04T03:06:13.406Z,99.90
2023-02-04T03:18:41.311Z,99.90
2023-02-04T03:21:11.675Z,99.90
2023-02-04T03:23:39.103Z,99.90
2023-02-04T03:26:06.882Z,99.90
2023-02-04T03:33:31.607Z,99.90
2023-02-04T03:36:01.574Z,99.90
2023-02-04T03:48:18.845Z,99.90
2023-02-04T03:50:46.210Z,99.90
2023-02-04T03:55:40.687Z,99.90
2023-02-04T03:58:07.888Z,99.90
2023-02-04T04:08:01.822Z,99.90
2023-02-04T04:12:59.962Z,99.90
2023-02-04T04:22:53.176Z,99.90
2023-02-04T04:30:15.713Z,99.90
2023-02-04T04:35:10.168Z,99.90
2023-02-04T04:40:04.910Z,99.90
2023-02-04T04:49:56.998Z,99.90
2023-02-04T04:54:52.122Z,99.90
2023-02-04T04:59:46.801Z,99.90
2023-02-04T05:07:18.488Z,99.90
2023-02-04T05:09:45.701Z,99.90
2023-02-04T05:12:12.783Z,99.90
2023-02-04T05:14:39.914Z,99.90
2023-02-04T05:19:35.806Z,99.90
2023-02-04T05:24:30.357Z,99.90
2023-02-04T05:26:57.308Z,99.90
2023-02-04T05:29:24.430Z,99.90
2023-02-04T05:31:51.438Z,99.90
2023-02-04T05:34:18.392Z,99.90
2023-02-04T05:46:35.365Z,99.90
2023-02-04T05:53:57.702Z,99.90
2023-02-04T05:58:55.775Z,99.90
2023-02-04T06:03:51.300Z,99.90
2023-02-04T06:06:23.597Z,99.90
2023-02-04T06:16:17.772Z,99.90
2023-02-04T06:31:04.511Z,99.90
2023-02-04T06:41:05.268Z,99.90
2023-02-04T06:43:35.104Z,99.90
2023-02-04T06:46:06.002Z,99.90
2023-02-04T06:58:50.053Z,99.90
2023-02-04T07:01:17.250Z,99.90
2023-02-04T07:03:47.176Z,99.90
2023-02-04T07:06:15.008Z,99.90
2023-02-04T07:16:22.353Z,99.90
2023-02-04T07:21:25.543Z,99.90
2023-02-04T07:35:55.998Z,99.90
2023-02-04T07:46:21.492Z,99.90
2023-02-04T07:48:57.068Z,99.90
2023-02-04T07:51:39.513Z,99.90
2023-02-04T07:59:56.404Z,99.90
2023-02-04T08:02:36.917Z,99.90
2023-02-04T08:05:25.965Z,99.90
2023-02-04T08:14:34.601Z,99.90
2023-02-04T08:21:20.900Z,99.90
2023-02-04T08:27:15.347Z,99.90
2023-02-04T08:30:15.750Z,99.90
2023-02-04T08:33:28.586Z,99.90
2023-02-04T08:42:38.891Z,99.90
2023-02-04T08:45:31.715Z,99.90
2023-02-04T08:48:17.714Z,99.90
2023-02-04T08:53:49.738Z,99.90
2023-02-04T08:56:22.781Z,99.90
2023-02-04T09:02:12.456Z,99.90
2023-02-04T09:04:48.542Z,99.90
2023-02-04T09:07:28.296Z,99.90
2023-02-04T09:15:49.254Z,99.90
2023-02-04T09:24:01.306Z,99.90
2023-02-04T09:26:36.718Z,99.90
2023-02-04T09:29:15.315Z,99.90
2023-02-04T09:31:50.506Z,99.90
2023-02-04T09:37:15.717Z,99.90
2023-02-04T09:40:10.536Z,99.90
2023-02-04T09:43:09.902Z,99.90
2023-02-04T09:45:48.473Z,99.90
2023-02-04T09:51:31.773Z,99.90
2023-02-04T09:54:18.169Z,99.90
2023-02-04T09:56:58.324Z,99.90
2023-02-04T10:00:12.251Z,99.90
2023-02-04T10:02:50.677Z,99.90
2023-02-04T10:08:41.803Z,99.90
2023-02-04T10:11:50.683Z,99.90
2023-02-04T10:14:28.105Z,99.90
2023-02-04T10:17:07.650Z,99.90
2023-02-04T10:19:48.824Z,99.90
2023-02-04T10:22:23.758Z,99.90
2023-02-04T10:24:53.823Z,99.90
2023-02-04T10:27:29.733Z,99.90
2023-02-04T10:31:05.835Z,99.90
2023-02-04T10:36:31.419Z,97.60
2023-02-04T10:39:22.746Z,99.90
2023-02-04T10:41:53.378Z,97.40
2023-02-04T10:44:32.595Z,97.70
2023-02-04T10:47:08.822Z,88.10
2023-02-04T10:49:47.984Z,89.40
2023-02-04T10:52:17.732Z,94.00
2023-02-04T10:54:52.326Z,87.90
2023-02-04T10:57:28.493Z,83.70
2023-02-04T10:59:59.465Z,83.30
2023-02-04T11:03:06.071Z,74.40
2023-02-04T11:05:37.177Z,75.00
2023-02-04T11:08:23.556Z,72.40
2023-02-04T11:10:59.330Z,71.10
2023-02-04T11:13:49.282Z,66.20
2023-02-04T11:16:30.460Z,65.70
2023-02-04T11:19:09.256Z,67.90
2023-02-04T11:21:39.485Z,71.50
2023-02-04T11:24:13.836Z,69.90
2023-02-04T11:26:43.286Z,71.60
2023-02-04T11:29:44.253Z,74.90
2023-02-04T11:32:28.143Z,65.10
2023-02-04T11:35:06.041Z,61.40
2023-02-04T11:37:37.870Z,62.10
2023-02-04T11:40:28.894Z,65.70
2023-02-04T11:43:04.201Z,66.70
2023-02-04T11:45:35.153Z,65.30
2023-02-04T11:48:21.745Z,63.00
2023-02-04T11:51:04.133Z,63.10
2023-02-04T11:53:34.104Z,60.90
2023-02-04T11:56:04.729Z,61.10
2023-02-04T11:58:43.226Z,63.60
2023-02-04T12:01:24.043Z,64.30
2023-02-04T12:04:01.468Z,61.90
2023-02-04T12:06:39.624Z,63.80
2023-02-04T12:09:18.963Z,61.30
2023-02-04T12:12:06.686Z,59.70
2023-02-04T12:14:39.120Z,61.10
2023-02-04T12:17:36.314Z,62.50
2023-02-04T12:20:07.180Z,62.40
2023-02-04T12:22:37.609Z,63.40
2023-02-04T12:25:17.103Z,66.90
2023-02-04T12:27:44.482Z,65.40
2023-02-04T12:30:14.259Z,64.10
2023-02-04T12:32:43.654Z,63.70
2023-02-04T12:35:10.606Z,61.50
2023-02-04T12:37:37.581Z,63.20
2023-02-04T12:40:08.066Z,65.90
2023-02-04T12:42:35.335Z,64.80
2023-02-04T12:45:05.162Z,61.90
2023-02-04T12:47:40.975Z,60.40
2023-02-04T12:50:09.504Z,63.40
2023-02-04T12:52:42.395Z,63.80
2023-02-04T12:55:09.519Z,64.20
2023-02-04T12:57:36.593Z,63.10
2023-02-04T13:00:04.291Z,61.20
2023-02-04T13:02:32.668Z,61.70
2023-02-04T13:04:59.653Z,63.50
2023-02-04T13:07:29.636Z,63.50
2023-02-04T13:09:57.562Z,62.60
2023-02-04T13:12:27.766Z,62.10
2023-02-04T13:14:57.704Z,62.40
2023-02-04T13:17:25.545Z,64.80
2023-02-04T13:19:55.538Z,66.30
2023-02-04T13:25:04.271Z,66.80
2023-02-04T13:27:32.027Z,69.00
2023-02-04T13:29:59.309Z,70.70
2023-02-04T13:32:26.290Z,73.80
2023-02-04T13:34:56.026Z,77.10
2023-02-04T13:37:23.149Z,76.70
2023-02-04T13:44:45.825Z,77.20
2023-02-04T13:49:45.013Z,75.60
2023-02-04T13:59:41.182Z,85.40
2023-02-04T14:07:14.097Z,88.00
2023-02-04T14:12:21.427Z,91.40
2023-02-04T14:14:59.403Z,92.30
2023-02-04T14:17:29.692Z,93.30
2023-02-04T14:25:01.875Z,99.90
2023-02-04T14:27:31.402Z,99.90
2023-02-04T14:37:21.790Z,99.90
2023-02-04T14:39:50.559Z,99.90
2023-02-04T14:47:16.873Z,99.90
2023-02-04T14:49:46.952Z,99.90
2023-02-04T14:52:14.600Z,99.90
2023-02-04T14:54:41.706Z,99.90
2023-02-04T14:57:12.844Z,99.90
2023-02-04T15:02:16.669Z,99.90
2023-02-04T15:07:13.794Z,99.90
2023-02-04T15:12:11.446Z,99.90
2023-02-04T15:14:43.550Z,99.90
2023-02-04T15:17:13.051Z,99.90
2023-02-04T15:22:10.766Z,99.90
2023-02-04T15:24:42.837Z,99.90
2023-02-04T15:27:11.170Z,99.90
2023-02-04T15:32:05.610Z,99.90
2023-02-04T15:39:27.746Z,99.90
2023-02-04T15:41:54.838Z,99.90
2023-02-04T15:44:24.324Z,99.90
2023-02-04T15:49:22.393Z,99.90
2023-02-04T15:51:56.051Z,99.90
2023-02-04T15:54:23.156Z,99.90
2023-02-04T16:01:52.437Z,99.90
2023-02-04T16:04:23.068Z,99.90
2023-02-04T16:09:28.698Z,99.90
2023-02-04T16:14:30.207Z,99.90
2023-02-04T16:17:12.679Z,99.90
2023-02-04T16:22:07.621Z,99.90
2023-02-04T16:24:34.949Z,99.90
2023-02-04T16:27:01.948Z,99.90
2023-02-04T16:29:28.969Z,99.90
2023-02-04T16:31:57.681Z,99.90
2023-02-04T16:34:25.382Z,99.90
2023-02-04T16:36:52.616Z,99.90
2023-02-04T16:39:19.656Z,99.90
2023-02-04T16:41:46.816Z,99.90
2023-02-04T16:44:14.903Z,99.90
2023-02-04T16:49:16.454Z,99.90
2023-02-04T16:51:48.349Z,99.90
2023-02-04T17:01:44.733Z,99.90
2023-02-04T17:04:11.991Z,99.90
2023-02-04T17:14:14.133Z,99.90
2023-02-04T17:16:45.145Z,99.90
2023-02-04T17:19:13.647Z,99.90
2023-02-04T17:21:40.939Z,99.90
2023-02-04T17:24:11.399Z,99.90
2023-02-04T17:26:40.305Z,99.90
2023-02-04T17:29:12.519Z,99.90
2023-02-04T17:31:42.882Z,99.90
2023-02-04T17:34:16.252Z,99.90
2023-02-04T17:36:43.353Z,99.90
2023-02-04T17:41:43.407Z,99.90
2023-02-04T17:49:20.800Z,99.90
2023-02-04T17:59:16.178Z,99.90
2023-02-04T18:01:46.052Z,99.90
2023-02-04T18:04:14.309Z,99.90
2023-02-04T18:09:17.194Z,99.90
2023-02-04T18:11:56.262Z,99.90
2023-02-04T18:14:30.669Z,99.90
2023-02-04T18:17:02.550Z,99.90
2023-02-04T18:19:39.633Z,99.90
2023-02-04T18:22:14.884Z,99.90
2023-02-04T18:24:45.077Z,99.90
2023-02-04T18:27:16.869Z,99.90
2023-02-04T18:29:56.480Z,99.90
2023-02-04T18:32:40.876Z,99.90
2023-02-04T18:35:37.280Z,99.90
2023-02-04T18:38:26.842Z,99.90
2023-02-04T18:41:10.395Z,99.90
2023-02-04T18:44:02.585Z,99.90
2023-02-04T18:46:35.683Z,99.90
2023-02-04T18:49:30.261Z,99.90
2023-02-04T18:54:46.973Z,99.90
2023-02-04T18:59:47.821Z,99.90
2023-02-04T19:02:38.378Z,99.90
2023-02-04T19:05:28.517Z,99.90
2023-02-04T19:08:04.667Z,99.90
2023-02-04T19:10:40.947Z,99.90
2023-02-04T19:13:13.264Z,99.90
2023-02-04T19:18:26.032Z,99.90
2023-02-04T19:23:23.810Z,99.90
2023-02-04T19:25:52.642Z,99.90
2023-02-04T19:28:32.995Z,99.90
2023-02-04T19:31:05.880Z,99.90
2023-02-04T19:33:47.302Z,99.90
2023-02-04T19:36:38.163Z,99.90
2023-02-04T19:39:21.635Z,99.90
2023-02-04T19:41:52.651Z,99.90
2023-02-04T19:44:48.990Z,99.90
2023-02-04T19:47:41.688Z,99.90
2023-02-04T19:50:25.525Z,99.90
2023-02-04T19:55:30.222Z,99.90
2023-02-04T19:58:16.814Z,99.90
2023-02-04T20:00:57.519Z,99.90
2023-02-04T20:03:46.160Z,99.90
2023-02-04T20:06:29.704Z,99.90
2023-02-04T20:09:11.566Z,99.90
2023-02-04T20:11:46.224Z,99.90
2023-02-04T20:14:36.228Z,99.90
2023-02-04T20:17:21.721Z,99.90
2023-02-04T20:19:52.709Z,99.90
2023-02-04T20:22:26.254Z,99.90
2023-02-04T20:24:58.691Z,99.90
2023-02-04T20:27:36.542Z,99.90
2023-02-04T20:30:11.927Z,99.90
2023-02-04T20:32:47.252Z,99.90
2023-02-04T20:37:51.179Z,99.90
2023-02-04T20:40:31.819Z,99.90
2023-02-04T20:43:05.609Z,99.90
2023-02-04T20:46:02.389Z,99.90
2023-02-04T20:48:36.229Z,99.90
2023-02-04T20:51:05.269Z,99.90
2023-02-04T20:53:58.955Z,99.90
2023-02-04T20:56:29.108Z,99.90
2023-02-04T20:59:35.282Z,99.90
2023-02-04T21:02:13.763Z,99.90
2023-02-04T21:04:47.004Z,99.90
2023-02-04T21:07:18.757Z,99.90
2023-02-04T21:09:46.345Z,99.90
2023-02-04T21:12:14.012Z,99.90
2023-02-04T21:14:41.577Z,99.90
2023-02-04T21:17:12.499Z,99.90
2023-02-04T21:19:42.310Z,99.90
2023-02-04T21:27:04.684Z,99.90
2023-02-04T21:29:31.933Z,99.90
2023-02-04T21:36:54.253Z,99.90
2023-02-04T21:39:21.740Z,99.90
2023-02-04T21:44:37.335Z,99.90
2023-02-04T21:47:04.605Z,99.90
2023-02-04T21:54:26.752Z,99.90
2023-02-04T21:59:22.579Z,99.90
2023-02-04T22:01:49.682Z,99.90
2023-02-04T22:04:16.909Z,99.90
2023-02-04T22:19:06.481Z,99.90
2023-02-04T22:24:03.667Z,99.90
2023-02-04T22:26:30.899Z,99.90
2023-02-04T22:31:25.386Z,99.90
2023-02-04T22:36:22.251Z,99.90
2023-02-04T22:38:49.697Z,99.90
2023-02-04T22:41:16.736Z,99.90
2023-02-04T22:43:43.812Z,99.90
2023-02-04T22:48:39.959Z,99.90
2023-02-04T22:51:10.115Z,99.90
2023-02-04T23:08:23.064Z,99.90
2023-02-04T23:20:56.380Z,99.90
2023-02-04T23:28:34.301Z,99.90
2023-02-04T23:31:02.912Z,99.90
2023-02-04T23:43:20.816Z,99.90
2023-02-04T23:45:48.045Z,99.90
2023-02-04T23:55:37.623Z,99.90
2023-02-04T23:58:05.484Z,99.90
